Time;durP1;ratioP1;P1;durP2;ratioP2;P2;SDS_P1;SDS_P2;PMS_P1;PMS_P2;Temp;Humidity;BMP_temperature;BMP_pressure;BME280_temperature;BME280_humidity;BME280_pressure;Samples;Min_cycle;Max_cycle;Signal;HPM_P1;HPM_P2
2021/03/04 00:01:12;;;;;;;1.60;1.40;;;9.20;98.20;;;;;;5056651;22;20566;-77
2021/03/04 00:03:39;;;;;;;1.60;1.30;;;9.20;98.20;;;;;;5057949;28;20462;-76
2021/03/04 00:06:06;;;;;;;1.53;1.17;;;9.20;98.20;;;;;;5035190;28;20534;-77
2021/03/04 00:08:32;;;;;;;1.50;1.13;;;9.20;98.20;;;;;;5057211;28;20463;-77
2021/03/04 00:10:59;;;;;;;1.53;1.20;;;9.10;98.20;;;;;;5026807;28;20569;-77
2021/03/04 00:13:25;;;;;;;1.50;1.20;;;9.10;98.20;;;;;;5034310;28;20601;-77
2021/03/04 00:15:54;;;;;;;1.57;1.20;;;9.10;98.20;;;;;;5025048;28;20479;-77
2021/03/04 00:18:20;;;;;;;1.60;1.20;;;9.10;98.20;;;;;;5028336;28;20463;-77
2021/03/04 00:20:48;;;;;;;1.60;1.30;;;9.10;98.20;;;;;;5032144;28;20475;-77
2021/03/04 00:23:15;;;;;;;1.57;1.10;;;9.10;98.20;;;;;;5038675;28;20505;-77
2021/03/04 00:25:41;;;;;;;1.60;1.30;;;9.10;98.20;;;;;;5035050;28;20615;-76
2021/03/04 00:28:08;;;;;;;1.60;1.30;;;9.10;98.20;;;;;;5019504;28;20522;-77
2021/03/04 00:30:35;;;;;;;1.53;1.20;;;9.00;98.20;;;;;;5032173;28;20478;-77
2021/03/04 00:33:01;;;;;;;1.57;1.20;;;9.00;98.20;;;;;;5028809;28;20493;-76
2021/03/04 00:35:27;;;;;;;1.60;1.30;;;9.00;98.20;;;;;;5030135;28;20728;-76
2021/03/04 00:37:54;;;;;;;1.57;1.20;;;9.00;98.20;;;;;;5032489;28;20489;-77
2021/03/04 00:40:22;;;;;;;1.53;1.20;;;9.00;98.20;;;;;;5028091;28;20497;-76
2021/03/04 00:42:48;;;;;;;1.53;1.30;;;8.90;98.20;;;;;;5028446;28;20486;-77
2021/03/04 00:45:17;;;;;;;1.60;1.30;;;8.90;98.20;;;;;;5034570;28;20554;-77
2021/03/04 00:47:44;;;;;;;1.60;1.30;;;8.90;98.20;;;;;;5035547;28;20564;-77
2021/03/04 00:50:12;;;;;;;1.53;1.20;;;8.90;98.20;;;;;;5035294;28;20478;-77
2021/03/04 00:52:38;;;;;;;1.60;1.20;;;8.90;98.20;;;;;;5034574;28;20482;-77
2021/03/04 00:55:06;;;;;;;1.53;1.20;;;8.90;98.20;;;;;;5029232;28;20902;-77
2021/03/04 00:57:34;;;;;;;1.57;1.20;;;8.90;98.20;;;;;;5013898;28;21036;-77
2021/03/04 01:00:01;;;;;;;1.57;1.20;;;8.80;98.20;;;;;;5027602;28;20542;-76
2021/03/04 01:02:28;;;;;;;1.60;1.30;;;8.90;98.20;;;;;;5021311;28;20476;-77
2021/03/04 01:04:54;;;;;;;1.60;1.30;;;8.90;98.20;;;;;;5030044;28;20468;-77
2021/03/04 01:07:20;;;;;;;1.53;1.20;;;8.90;98.20;;;;;;5019570;28;20486;-77
2021/03/04 01:09:47;;;;;;;1.60;1.20;;;8.90;98.20;;;;;;5026985;28;20490;-76
2021/03/04 01:12:13;;;;;;;1.53;1.20;;;8.90;98.20;;;;;;5014401;28;20473;-76
2021/03/04 01:14:40;;;;;;;1.50;1.10;;;8.90;98.20;;;;;;5027105;28;20471;-77
2021/03/04 01:17:08;;;;;;;1.57;1.20;;;8.90;98.20;;;;;;5023034;28;20674;-77
2021/03/04 01:19:35;;;;;;;1.53;1.20;;;8.90;98.20;;;;;;5027339;28;20691;-76
2021/03/04 01:22:02;;;;;;;1.70;1.60;;;8.90;98.20;;;;;;5024215;28;20526;-76
2021/03/04 01:24:28;;;;;;;1.60;1.43;;;8.90;98.20;;;;;;5028363;28;20467;-77
2021/03/04 01:26:54;;;;;;;1.50;1.20;;;8.90;98.20;;;;;;5018825;28;20492;-76
2021/03/04 01:29:21;;;;;;;1.60;1.20;;;9.00;98.20;;;;;;5029141;28;20471;-76
2021/03/04 01:31:47;;;;;;;1.57;1.20;;;9.00;98.20;;;;;;5025404;28;20512;-76
2021/03/04 01:34:13;;;;;;;1.60;1.37;;;9.00;98.20;;;;;;5036196;28;20459;-77
2021/03/04 01:36:41;;;;;;;1.60;1.20;;;9.00;98.20;;;;;;5023092;28;20847;-77
2021/03/04 01:39:07;;;;;;;1.53;1.30;;;9.00;98.20;;;;;;5039591;28;20982;-77
2021/03/04 01:41:34;;;;;;;1.60;1.30;;;9.00;98.20;;;;;;5018858;28;20490;-77
2021/03/04 01:44:00;;;;;;;1.60;1.20;;;9.10;98.20;;;;;;5033061;28;20945;-77
2021/03/04 01:46:26;;;;;;;1.57;1.20;;;9.10;98.20;;;;;;5023954;28;20909;-77
2021/03/04 01:48:53;;;;;;;1.50;1.20;;;9.10;98.20;;;;;;5037775;28;20545;-78
2021/03/04 01:51:20;;;;;;;1.53;1.20;;;9.10;98.20;;;;;;5017787;28;20475;-78
2021/03/04 01:53:47;;;;;;;1.60;1.20;;;9.10;98.20;;;;;;5027237;28;20456;-79
2021/03/04 01:56:14;;;;;;;1.60;1.20;;;9.10;98.20;;;;;;5026089;28;20490;-79
2021/03/04 01:58:42;;;;;;;2.33;2.13;;;9.10;98.20;;;;;;5043527;28;20463;-78
2021/03/04 02:01:08;;;;;;;1.53;1.20;;;9.10;98.20;;;;;;5018123;28;20475;-78
2021/03/04 02:03:34;;;;;;;1.57;1.23;;;9.10;98.20;;;;;;5033658;28;20463;-77
2021/03/04 02:06:01;;;;;;;2.20;1.80;;;9.20;98.20;;;;;;5019787;28;20466;-77
2021/03/04 02:08:34;;;;;;;1.57;1.20;;;9.20;98.20;;;;;;5043838;28;21146;-77
2021/03/04 02:11:07;;;;;;;1.57;1.20;;;9.10;98.20;;;;;;5016260;28;20608;-77
2021/03/04 02:13:37;;;;;;;1.60;1.20;;;9.20;98.20;;;;;;5046052;28;20901;-77
2021/03/04 02:16:09;;;;;;;1.57;1.20;;;9.20;98.20;;;;;;5017791;28;21026;-77
2021/03/04 02:18:40;;;;;;;1.53;1.20;;;9.10;98.20;;;;;;5023548;28;20538;-77
2021/03/04 02:21:36;;;;;;;1.50;1.10;;;9.20;98.20;;;;;;5019658;28;20473;-77
2021/03/04 02:24:41;;;;;;;1.60;1.30;;;9.10;98.20;;;;;;5035695;28;20470;-77
2021/03/04 02:27:10;;;;;;;1.70;1.60;;;9.10;98.20;;;;;;5019023;28;20482;-77
2021/03/04 02:29:46;;;;;;;1.60;1.30;;;9.10;98.20;;;;;;5032967;28;20495;-78
2021/03/04 02:32:14;;;;;;;1.53;1.10;;;9.10;98.20;;;;;;5026038;28;20592;-78
2021/03/04 02:34:45;;;;;;;1.50;1.20;;;9.10;98.20;;;;;;5016487;28;20463;-78
2021/03/04 02:37:16;;;;;;;1.60;1.20;;;9.10;98.20;;;;;;5017340;28;20534;-79
2021/03/04 02:39:45;;;;;;;1.60;1.20;;;9.10;98.20;;;;;;5026881;28;20516;-77
2021/03/04 02:42:16;;;;;;;1.60;1.50;;;9.10;98.20;;;;;;5002111;28;20506;-77
2021/03/04 02:44:43;;;;;;;1.53;1.10;;;9.10;98.20;;;;;;5023215;28;20458;-78
2021/03/04 02:47:11;;;;;;;1.53;1.20;;;9.10;98.20;;;;;;5013928;28;20854;-77
2021/03/04 02:49:37;;;;;;;1.60;1.30;;;9.10;98.20;;;;;;5021674;28;20994;-78
2021/03/04 02:52:05;;;;;;;1.60;1.20;;;9.00;98.20;;;;;;5024060;28;21057;-77
2021/03/04 02:54:33;;;;;;;2.57;2.37;;;8.90;98.20;;;;;;5028077;28;20767;-77
2021/03/04 02:57:02;;;;;;;1.50;1.20;;;8.90;98.20;;;;;;5023162;28;20981;-77
2021/03/04 02:59:30;;;;;;;1.60;1.40;;;8.80;98.20;;;;;;5026125;28;20558;-78
2021/03/04 03:01:58;;;;;;;1.60;1.37;;;8.80;98.20;;;;;;5026470;28;20910;-77
2021/03/04 03:04:25;;;;;;;1.60;1.20;;;8.70;98.20;;;;;;5031695;28;20467;-77
2021/03/04 03:06:52;;;;;;;1.60;1.20;;;8.70;98.20;;;;;;5022726;28;20479;-77
2021/03/04 03:09:20;;;;;;;1.60;1.20;;;8.60;98.20;;;;;;5033950;28;20464;-77
2021/03/04 03:11:46;;;;;;;1.60;1.30;;;8.60;98.20;;;;;;5019854;28;20593;-78
2021/03/04 03:14:13;;;;;;;1.60;1.30;;;8.60;98.20;;;;;;5031953;28;20478;-77
2021/03/04 03:16:40;;;;;;;1.60;1.40;;;8.60;98.20;;;;;;5009622;28;20498;-77
2021/03/04 03:19:07;;;;;;;1.53;1.20;;;8.50;98.20;;;;;;5033618;28;21049;-78
2021/03/04 03:21:33;;;;;;;1.53;1.10;;;8.50;98.20;;;;;;5018567;28;20515;-78
2021/03/04 03:23:59;;;;;;;1.60;1.20;;;8.50;98.20;;;;;;5031071;28;20537;-77
2021/03/04 03:26:25;;;;;;;1.60;1.30;;;8.50;98.20;;;;;;5025537;28;20474;-77
2021/03/04 03:28:52;;;;;;;1.60;1.20;;;8.50;98.20;;;;;;5033497;28;20993;-77
2021/03/04 03:31:21;;;;;;;1.50;1.20;;;8.40;98.20;;;;;;5021874;28;20479;-78
2021/03/04 03:33:48;;;;;;;1.53;1.20;;;8.40;98.20;;;;;;5030597;28;20524;-78
2021/03/04 03:36:15;;;;;;;1.57;1.20;;;8.40;98.20;;;;;;5033316;28;20854;-77
2021/03/04 03:38:42;;;;;;;1.57;1.20;;;8.40;98.20;;;;;;5047684;28;20762;-77
2021/03/04 03:41:09;;;;;;;1.57;1.27;;;8.40;98.20;;;;;;5027868;28;20490;-77
2021/03/04 03:43:37;;;;;;;1.53;1.20;;;8.40;98.20;;;;;;5037911;28;20482;-77
2021/03/04 03:46:05;;;;;;;1.60;1.20;;;8.30;98.20;;;;;;5016937;28;20489;-78
2021/03/04 03:48:32;;;;;;;1.50;1.20;;;8.30;98.20;;;;;;5034616;28;20470;-77
2021/03/04 03:51:00;;;;;;;1.60;1.23;;;8.30;98.20;;;;;;5022403;28;20491;-77
2021/03/04 03:53:27;;;;;;;1.60;1.20;;;8.20;98.20;;;;;;5038960;28;20817;-77
2021/03/04 03:55:54;;;;;;;1.60;1.27;;;8.20;98.20;;;;;;5016972;28;20463;-79
2021/03/04 03:58:22;;;;;;;1.60;1.20;;;8.20;98.20;;;;;;5045051;28;20459;-77
2021/03/04 04:00:49;;;;;;;1.60;1.20;;;8.20;98.20;;;;;;5022381;28;20494;-77
2021/03/04 04:03:16;;;;;;;1.60;1.30;;;8.20;98.20;;;;;;5044310;28;20476;-78
2021/03/04 04:05:43;;;;;;;1.60;1.20;;;8.20;98.20;;;;;;5033132;28;21093;-77
2021/03/04 04:08:10;;;;;;;11.90;11.30;;;8.30;98.20;;;;;;5015987;28;20483;-77
2021/03/04 04:10:39;;;;;;;1.57;1.20;;;8.30;98.20;;;;;;5033208;28;20482;-77
2021/03/04 04:13:06;;;;;;;1.53;1.20;;;8.40;98.20;;;;;;5036967;28;20959;-77
2021/03/04 04:15:32;;;;;;;1.60;1.30;;;8.40;98.20;;;;;;5024178;28;20464;-77
2021/03/04 04:18:00;;;;;;;1.60;1.20;;;8.40;98.20;;;;;;5031642;28;20532;-77
2021/03/04 04:20:27;;;;;;;1.60;1.40;;;8.50;98.20;;;;;;5029986;28;20485;-77
2021/03/04 04:22:55;;;;;;;1.57;1.20;;;8.50;98.20;;;;;;5021886;28;20981;-78
2021/03/04 04:25:24;;;;;;;1.57;1.20;;;8.50;98.20;;;;;;5031983;28;20467;-78
2021/03/04 04:27:50;;;;;;;1.57;1.27;;;8.50;98.20;;;;;;5033656;28;20511;-78
2021/03/04 04:30:18;;;;;;;1.50;1.20;;;8.60;98.20;;;;;;5027343;28;20493;-77
2021/03/04 04:32:45;;;;;;;1.50;1.20;;;8.60;98.20;;;;;;5019523;28;20493;-78
2021/03/04 04:35:13;;;;;;;1.60;1.20;;;8.60;98.20;;;;;;5026099;28;21006;-77
2021/03/04 04:37:39;;;;;;;1.60;1.20;;;8.60;98.20;;;;;;5035155;28;20477;-78
2021/03/04 04:40:07;;;;;;;1.57;1.20;;;8.60;98.20;;;;;;5035448;28;20506;-77
2021/03/04 04:42:34;;;;;;;1.57;1.20;;;8.60;98.20;;;;;;5033089;28;20478;-77
2021/03/04 04:45:01;;;;;;;1.50;1.20;;;8.60;98.20;;;;;;5031702;28;20923;-78
2021/03/04 04:47:27;;;;;;;1.57;1.10;;;8.60;98.20;;;;;;5018099;28;21070;-77
2021/03/04 04:49:53;;;;;;;1.57;1.20;;;8.60;98.20;;;;;;5025764;28;20529;-77
2021/03/04 04:52:20;;;;;;;1.53;1.20;;;8.60;98.20;;;;;;5030027;28;21016;-77
2021/03/04 04:54:46;;;;;;;1.60;1.20;;;8.60;98.20;;;;;;5028406;28;20467;-78
2021/03/04 04:57:13;;;;;;;1.60;1.30;;;8.60;98.20;;;;;;5023666;28;20838;-78
2021/03/04 04:59:40;;;;;;;1.50;1.10;;;8.60;98.20;;;;;;5022950;28;20503;-77
2021/03/04 05:02:06;;;;;;;1.57;1.20;;;8.60;98.20;;;;;;5031569;28;20482;-78
2021/03/04 05:04:33;;;;;;;1.50;1.20;;;8.60;98.20;;;;;;5039573;28;20466;-78
2021/03/04 05:06:59;;;;;;;1.57;1.17;;;8.60;98.20;;;;;;5025828;28;20470;-78
2021/03/04 05:09:26;;;;;;;1.57;1.10;;;8.60;98.20;;;;;;5028683;28;20467;-77
2021/03/04 05:11:52;;;;;;;1.53;1.10;;;8.60;98.20;;;;;;5027113;28;20482;-77
2021/03/04 05:14:18;;;;;;;1.60;1.30;;;8.60;98.20;;;;;;5035796;28;20463;-77
2021/03/04 05:16:46;;;;;;;1.60;1.20;;;8.60;98.20;;;;;;5014151;28;20478;-77
2021/03/04 05:19:12;;;;;;;1.60;1.20;;;8.60;98.20;;;;;;5035621;28;20937;-78
2021/03/04 05:21:38;;;;;;;1.60;1.20;;;8.60;98.20;;;;;;5027982;28;20486;-79
2021/03/04 05:24:06;;;;;;;1.50;1.17;;;8.60;98.20;;;;;;5038082;28;20869;-78
2021/03/04 05:26:32;;;;;;;1.57;1.20;;;8.60;98.20;;;;;;5023138;28;20740;-78
2021/03/04 05:28:58;;;;;;;1.60;1.20;;;8.60;98.20;;;;;;5033878;28;22626;-78
2021/03/04 05:31:25;;;;;;;1.53;1.10;;;8.60;98.20;;;;;;5024548;28;20516;-78
2021/03/04 05:33:52;;;;;;;1.50;1.10;;;8.60;98.20;;;;;;5030138;28;20730;-77
2021/03/04 05:36:18;;;;;;;1.57;1.20;;;8.60;98.20;;;;;;5025576;28;20506;-78
2021/03/04 05:38:44;;;;;;;1.60;1.27;;;8.60;98.20;;;;;;5039154;28;20594;-77
2021/03/04 05:41:11;;;;;;;1.50;1.10;;;8.60;98.20;;;;;;5023557;28;21205;-78
2021/03/04 05:43:38;;;;;;;1.60;1.20;;;8.60;98.20;;;;;;5036007;28;20467;-77
2021/03/04 05:46:06;;;;;;;1.60;1.20;;;8.60;98.20;;;;;;5014951;28;20892;-77
2021/03/04 05:48:33;;;;;;;1.60;1.20;;;8.50;98.20;;;;;;5039667;28;20464;-78
2021/03/04 05:51:05;;;;;;;1.57;1.23;;;8.50;98.20;;;;;;5017333;28;20864;-77
2021/03/04 05:53:33;;;;;;;1.57;1.20;;;8.50;98.20;;;;;;5037753;28;20463;-78
2021/03/04 05:56:00;;;;;;;1.57;1.20;;;8.50;98.20;;;;;;5009836;28;20757;-78
2021/03/04 05:58:29;;;;;;;1.60;1.20;;;8.50;98.20;;;;;;5039584;28;20805;-77
2021/03/04 06:00:57;;;;;;;1.53;1.20;;;8.60;98.20;;;;;;5016616;28;20495;-78
2021/03/04 06:03:23;;;;;;;1.50;1.20;;;8.60;98.20;;;;;;5059487;22;20585;-81
2021/03/04 06:05:50;;;;;;;1.53;1.20;;;8.60;98.20;;;;;;5051231;28;20622;-81
2021/03/04 06:08:17;;;;;;;1.53;1.10;;;8.60;98.20;;;;;;5054752;28;20462;-82
2021/03/04 06:10:43;;;;;;;1.60;1.20;;;8.60;98.20;;;;;;5063800;28;20484;-84
2021/03/04 06:13:14;;;;;;;1.60;1.20;;;8.50;98.20;;;;;;5047632;28;20511;-84
2021/03/04 06:15:41;;;;;;;1.53;1.20;;;8.50;98.20;;;;;;5071977;28;20520;-80
2021/03/04 06:18:07;;;;;;;1.57;1.20;;;8.50;98.20;;;;;;5050869;28;20523;-84
2021/03/04 06:20:37;;;;;;;1.60;1.20;;;8.50;98.20;;;;;;5062247;28;20472;-82
2021/03/04 06:23:04;;;;;;;1.60;1.10;;;8.40;98.20;;;;;;5069137;28;20706;-83
2021/03/04 06:25:31;;;;;;;1.57;1.20;;;8.40;98.20;;;;;;5061824;28;20468;-78
2021/03/04 06:27:59;;;;;;;1.53;1.20;;;8.20;98.20;;;;;;5050468;28;20517;-77
2021/03/04 06:30:25;;;;;;;1.60;1.30;;;8.20;98.20;;;;;;5057111;28;20502;-82
2021/03/04 06:32:57;;;;;;;1.77;1.67;;;8.00;98.20;;;;;;5063715;28;20481;-80
2021/03/04 06:35:24;;;;;;;1.60;1.23;;;7.90;98.20;;;;;;5063149;28;20458;-77
2021/03/04 06:37:51;;;;;;;1.60;1.30;;;7.80;98.20;;;;;;5067230;28;20563;-80
2021/03/04 06:40:20;;;;;;;1.60;1.20;;;7.70;98.20;;;;;;5059956;28;20458;-80
2021/03/04 06:42:47;;;;;;;1.57;1.20;;;7.70;98.20;;;;;;5068984;28;20481;-81
2021/03/04 06:45:29;;;;;;;1.60;1.20;;;7.70;98.20;;;;;;5059938;28;20568;-81
2021/03/04 06:48:06;;;;;;;2.23;2.03;;;7.60;98.20;;;;;;5063106;28;20468;-81
2021/03/04 06:50:33;;;;;;;1.60;1.40;;;7.60;98.20;;;;;;5061712;28;20548;-81
2021/03/04 06:53:14;;;;;;;1.60;1.27;;;7.60;98.20;;;;;;5072037;28;20942;-80
2021/03/04 06:55:51;;;;;;;1.57;1.20;;;7.50;98.20;;;;;;5056044;28;20540;-79
2021/03/04 06:58:25;;;;;;;1.60;1.30;;;7.50;98.20;;;;;;5027919;28;20493;-80
2021/03/04 07:01:05;;;;;;;1.60;1.27;;;7.50;98.20;;;;;;5038004;28;20483;-81
2021/03/04 07:03:39;;;;;;;1.60;1.30;;;7.50;98.20;;;;;;5059450;28;20497;-81
2021/03/04 07:06:08;;;;;;;1.60;1.20;;;7.50;98.20;;;;;;5032527;28;20468;-81
2021/03/04 07:08:36;;;;;;;1.60;1.20;;;7.40;98.20;;;;;;5038468;28;20475;-80
2021/03/04 07:11:04;;;;;;;1.57;1.20;;;7.40;98.20;;;;;;5030615;28;20796;-79
2021/03/04 07:13:33;;;;;;;1.60;1.30;;;7.40;98.20;;;;;;5050971;28;20486;-80
2021/03/04 07:16:06;;;;;;;1.60;1.30;;;7.30;98.20;;;;;;5036670;28;20468;-80
2021/03/04 07:18:39;;;;;;;1.60;1.30;;;7.20;98.20;;;;;;5059837;28;20438;-81
2021/03/04 07:21:09;;;;;;;1.60;1.30;;;7.20;98.20;;;;;;5045593;28;20450;-81
2021/03/04 07:23:38;;;;;;;1.60;1.30;;;7.10;98.20;;;;;;5054746;28;20561;-81
2021/03/04 07:26:05;;;;;;;1.60;1.30;;;7.10;98.20;;;;;;5032458;28;20473;-81
2021/03/04 07:28:33;;;;;;;1.60;1.20;;;7.10;98.20;;;;;;5053638;28;20458;-81
2021/03/04 07:30:59;;;;;;;1.60;1.30;;;7.10;98.20;;;;;;5033782;28;20527;-78
2021/03/04 07:33:32;;;;;;;1.60;1.20;;;7.20;98.20;;;;;;5029661;28;20499;-79
2021/03/04 07:36:01;;;;;;;1.60;1.30;;;7.10;98.20;;;;;;5035353;28;20470;-81
2021/03/04 07:38:38;;;;;;;1.57;1.20;;;7.10;98.20;;;;;;5075574;28;20497;-82
2021/03/04 07:41:07;;;;;;;1.60;1.30;;;7.10;98.20;;;;;;5048401;28;20631;-81
2021/03/04 07:43:45;;;;;;;1.60;1.30;;;7.10;98.20;;;;;;5067413;28;20844;-82
2021/03/04 07:46:11;;;;;;;1.60;1.30;;;7.10;98.20;;;;;;5040596;28;20509;-81
2021/03/04 07:48:49;;;;;;;1.60;1.40;;;7.10;98.20;;;;;;5059237;28;20474;-81
2021/03/04 07:51:15;;;;;;;1.60;1.30;;;7.00;98.20;;;;;;5050385;28;20472;-79
2021/03/04 07:53:43;;;;;;;1.60;1.40;;;7.00;98.20;;;;;;5069799;28;20551;-79
2021/03/04 07:56:09;;;;;;;1.57;1.20;;;7.10;98.20;;;;;;5049516;28;20936;-79
2021/03/04 07:58:38;;;;;;;1.60;1.33;;;7.20;98.20;;;;;;5066577;28;20473;-79
2021/03/04 08:01:11;;;;;;;1.60;1.30;;;7.30;98.20;;;;;;5045945;28;20472;-79
2021/03/04 08:03:44;;;;;;;1.60;1.30;;;7.30;98.20;;;;;;5060106;28;20488;-79
2021/03/04 08:06:11;;;;;;;1.57;1.30;;;7.40;98.20;;;;;;5052782;28;20484;-81
2021/03/04 08:08:39;;;;;;;1.60;1.30;;;7.50;98.20;;;;;;5062184;28;20469;-82
2021/03/04 08:11:06;;;;;;;1.60;1.40;;;7.50;98.20;;;;;;5052143;28;20473;-82
2021/03/04 08:13:33;;;;;;;1.60;1.30;;;7.60;98.20;;;;;;5074364;28;20516;-82
2021/03/04 08:16:00;;;;;;;1.60;1.30;;;7.60;98.20;;;;;;5048380;28;20468;-81
2021/03/04 08:18:28;;;;;;;1.60;1.30;;;7.70;98.20;;;;;;5069232;28;20489;-80
2021/03/04 08:21:02;;;;;;;1.60;1.30;;;7.70;98.20;;;;;;5056546;28;20522;-78
2021/03/04 08:23:29;;;;;;;1.53;1.20;;;7.70;98.20;;;;;;5068664;28;20481;-78
2021/03/04 08:25:56;;;;;;;1.60;1.40;;;7.80;98.20;;;;;;5045862;28;20926;-79
2021/03/04 08:28:23;;;;;;;1.60;1.40;;;7.80;98.20;;;;;;5066848;28;20458;-79
2021/03/04 08:30:50;;;;;;;1.60;1.30;;;7.80;98.20;;;;;;5053239;28;20559;-78
2021/03/04 08:33:17;;;;;;;1.57;1.20;;;7.70;98.20;;;;;;5063877;28;20544;-78
2021/03/04 08:35:46;;;;;;;1.60;1.30;;;7.70;98.20;;;;;;5055532;28;20465;-79
2021/03/04 08:38:14;;;;;;;1.60;1.40;;;7.70;98.20;;;;;;5040290;28;20486;-78
2021/03/04 08:40:42;;;;;;;1.60;1.30;;;7.70;98.20;;;;;;5062830;28;20762;-78
2021/03/04 08:43:10;;;;;;;1.60;1.27;;;7.70;98.20;;;;;;5060727;28;20546;-80
2021/03/04 08:45:36;;;;;;;1.53;1.20;;;7.70;98.20;;;;;;5059709;28;20477;-81
2021/03/04 08:48:05;;;;;;;1.53;1.20;;;7.70;98.20;;;;;;5053071;28;20591;-78
2021/03/04 08:50:33;;;;;;;1.60;1.40;;;7.70;98.20;;;;;;5062921;28;20555;-80
2021/03/04 08:53:01;;;;;;;1.60;1.23;;;7.80;98.20;;;;;;5066390;28;20599;-82
2021/03/04 08:55:27;;;;;;;1.60;1.30;;;7.80;98.20;;;;;;5052770;28;20736;-81
2021/03/04 08:58:04;;;;;;;1.60;1.40;;;7.80;98.20;;;;;;5046006;28;20484;-81
2021/03/04 09:00:31;;;;;;;1.60;1.30;;;7.90;98.20;;;;;;5055973;28;20888;-81
2021/03/04 09:03:07;;;;;;;1.57;1.20;;;7.90;98.20;;;;;;5063736;28;20551;-81
2021/03/04 09:05:33;;;;;;;1.60;1.20;;;7.90;98.20;;;;;;5058040;28;20549;-80
2021/03/04 09:08:07;;;;;;;1.60;1.20;;;8.00;98.20;;;;;;5046750;28;20500;-80
2021/03/04 09:10:40;;;;;;;1.57;1.20;;;8.10;98.20;;;;;;5057523;28;20934;-81
2021/03/04 09:13:07;;;;;;;1.53;1.20;;;8.10;98.20;;;;;;5059834;28;20489;-79
2021/03/04 09:15:33;;;;;;;1.57;1.20;;;8.20;98.20;;;;;;5062169;28;20541;-79
2021/03/04 09:18:07;;;;;;;1.57;1.20;;;8.20;98.20;;;;;;5063158;28;20481;-78
2021/03/04 09:20:33;;;;;;;1.60;1.50;;;8.30;98.20;;;;;;5060777;28;20466;-79
2021/03/04 09:23:03;;;;;;;1.60;1.30;;;8.30;98.20;;;;;;5059630;28;20476;-78
2021/03/04 09:25:29;;;;;;;1.57;1.20;;;8.40;98.20;;;;;;5058301;28;20995;-78
2021/03/04 09:27:56;;;;;;;1.60;1.33;;;8.40;98.20;;;;;;5060456;28;20457;-78
2021/03/04 09:30:28;;;;;;;1.57;1.20;;;8.50;98.20;;;;;;5058487;28;20461;-79
2021/03/04 09:32:55;;;;;;;1.57;1.20;;;8.60;98.20;;;;;;5061650;28;20602;-79
2021/03/04 09:35:22;;;;;;;1.60;1.20;;;8.70;98.20;;;;;;5059809;28;20504;-79
2021/03/04 09:37:48;;;;;;;1.60;1.20;;;8.70;98.20;;;;;;5049842;28;20480;-79
2021/03/04 09:40:28;;;;;;;1.60;1.23;;;8.80;98.20;;;;;;5060362;28;20462;-79
2021/03/04 09:42:55;;;;;;;1.57;1.10;;;9.00;98.20;;;;;;5064082;28;20510;-77
2021/03/04 09:45:21;;;;;;;1.60;1.20;;;9.10;98.20;;;;;;5055713;28;20458;-79
2021/03/04 09:47:49;;;;;;;1.93;1.73;;;9.30;98.20;;;;;;5044173;28;20568;-77
2021/03/04 09:50:19;;;;;;;1.50;1.10;;;9.50;98.20;;;;;;5056411;28;20470;-79
2021/03/04 09:52:45;;;;;;;1.60;1.13;;;9.70;98.20;;;;;;5040793;28;20580;-80
2021/03/04 09:55:15;;;;;;;1.60;1.20;;;9.80;98.20;;;;;;5053522;28;20534;-78
2021/03/04 09:57:43;;;;;;;1.60;1.20;;;9.80;98.20;;;;;;5066396;28;20471;-78
2021/03/04 10:00:31;;;;;;;1.60;1.10;;;9.70;98.20;;;;;;5058730;28;20541;-78
2021/03/04 10:02:57;;;;;;;1.60;1.20;;;9.60;98.20;;;;;;5067250;28;20488;-78
2021/03/04 10:05:25;;;;;;;1.60;1.10;;;9.60;98.20;;;;;;5062608;28;20522;-79
2021/03/04 10:07:56;;;;;;;1.50;1.10;;;9.60;98.20;;;;;;5062872;28;20549;-79
2021/03/04 10:10:23;;;;;;;1.60;1.30;;;9.60;98.20;;;;;;5057679;28;20471;-79
2021/03/04 10:12:55;;;;;;;1.60;1.20;;;9.60;98.20;;;;;;5062385;28;20511;-79
2021/03/04 10:15:30;;;;;;;1.60;1.20;;;9.50;98.20;;;;;;5051938;28;20529;-79
2021/03/04 10:17:57;;;;;;;1.57;1.17;;;9.40;98.20;;;;;;5064925;28;20507;-78
2021/03/04 10:20:24;;;;;;;1.60;1.30;;;9.30;98.20;;;;;;5058269;28;20466;-79
2021/03/04 10:22:51;;;;;;;1.60;1.20;;;9.20;98.20;;;;;;5062436;28;20476;-78
2021/03/04 10:25:17;;;;;;;1.60;1.27;;;9.10;98.20;;;;;;5054604;28;20943;-80
2021/03/04 10:27:44;;;;;;;1.50;1.10;;;9.10;98.20;;;;;;5044087;28;20481;-79
2021/03/04 10:30:13;;;;;;;1.57;1.10;;;9.00;98.20;;;;;;5062591;28;20462;-78
2021/03/04 10:32:39;;;;;;;1.57;1.20;;;9.00;98.20;;;;;;5063500;28;20489;-79
2021/03/04 10:35:08;;;;;;;1.57;1.20;;;8.90;98.20;;;;;;5059434;28;20973;-79
2021/03/04 10:37:34;;;;;;;1.60;1.20;;;8.90;98.20;;;;;;5059004;28;20876;-79
2021/03/04 10:40:00;;;;;;;1.53;1.10;;;8.80;98.20;;;;;;5057858;28;20974;-80
2021/03/04 10:42:27;;;;;;;1.60;1.10;;;8.80;98.20;;;;;;5052631;28;20474;-80
2021/03/04 10:44:55;;;;;;;1.53;1.20;;;8.70;98.20;;;;;;5057967;28;20482;-80
2021/03/04 10:47:23;;;;;;;1.60;1.20;;;8.60;98.20;;;;;;5062957;28;20511;-79
2021/03/04 10:49:50;;;;;;;1.53;1.10;;;8.60;98.20;;;;;;5063411;28;20491;-79
2021/03/04 10:52:16;;;;;;;1.60;1.20;;;8.60;98.20;;;;;;5046507;28;20581;-81
2021/03/04 10:54:42;;;;;;;1.60;1.20;;;8.60;98.20;;;;;;5053984;28;20950;-80
2021/03/04 10:57:09;;;;;;;1.60;1.30;;;8.60;98.20;;;;;;5056747;28;21049;-80
2021/03/04 10:59:35;;;;;;;1.60;1.20;;;8.60;98.20;;;;;;5057898;28;20468;-80
2021/03/04 11:02:05;;;;;;;1.50;1.10;;;8.60;98.20;;;;;;5048887;28;20494;-79
2021/03/04 11:04:32;;;;;;;1.53;1.20;;;8.50;98.20;;;;;;5062339;28;20975;-79
2021/03/04 11:06:58;;;;;;;1.60;1.30;;;8.50;98.20;;;;;;5059799;28;21068;-78
2021/03/04 11:09:24;;;;;;;1.57;1.20;;;8.50;98.20;;;;;;5059063;28;21013;-80
2021/03/04 11:11:51;;;;;;;1.60;1.20;;;8.50;98.20;;;;;;5053191;28;21601;-77
2021/03/04 11:14:17;;;;;;;1.60;1.20;;;8.40;98.20;;;;;;5065087;28;20928;-77
2021/03/04 11:16:44;;;;;;;1.60;1.30;;;8.40;98.20;;;;;;5056427;28;21017;-77
2021/03/04 11:19:11;;;;;;;1.60;1.20;;;8.40;98.20;;;;;;5062780;28;20683;-78
2021/03/04 11:21:39;;;;;;;1.53;1.20;;;8.40;98.20;;;;;;5052009;28;20476;-77
2021/03/04 11:24:07;;;;;;;1.50;1.10;;;8.30;98.20;;;;;;5057102;28;21224;-77
2021/03/04 11:26:33;;;;;;;1.60;1.27;;;8.40;98.20;;;;;;5044276;28;20489;-80
2021/03/04 11:29:00;;;;;;;1.57;1.20;;;8.30;98.20;;;;;;5057565;28;20825;-77
2021/03/04 11:31:26;;;;;;;1.60;1.20;;;8.30;98.20;;;;;;5053942;28;21012;-77
2021/03/04 11:33:52;;;;;;;1.57;1.20;;;8.20;98.20;;;;;;5068182;28;20481;-77
2021/03/04 11:36:18;;;;;;;1.60;1.20;;;8.10;98.20;;;;;;5047348;28;20472;-77
2021/03/04 11:38:46;;;;;;;1.60;1.20;;;8.20;98.20;;;;;;5070456;28;20485;-77
2021/03/04 11:41:15;;;;;;;1.53;1.10;;;8.10;98.20;;;;;;5049756;28;20489;-77
2021/03/04 11:43:41;;;;;;;1.60;1.20;;;8.10;98.20;;;;;;5063197;28;20497;-77
2021/03/04 11:46:08;;;;;;;1.60;1.20;;;8.10;98.20;;;;;;5048294;28;20525;-78
2021/03/04 11:48:34;;;;;;;1.57;1.10;;;8.10;98.20;;;;;;5053180;28;20462;-78
2021/03/04 11:51:03;;;;;;;1.60;1.20;;;8.00;98.20;;;;;;5043879;28;20461;-79
2021/03/04 11:53:30;;;;;;;1.60;1.23;;;8.00;98.20;;;;;;5055905;28;20484;-79
2021/03/04 11:55:57;;;;;;;1.60;1.20;;;8.00;98.20;;;;;;5045639;28;20468;-78
2021/03/04 11:58:23;;;;;;;1.60;1.30;;;7.90;98.20;;;;;;5073684;28;20496;-78
2021/03/04 12:00:49;;;;;;;1.53;1.20;;;7.90;98.20;;;;;;5047582;28;20523;-79
2021/03/04 12:05:51;;;;;;;1.60;1.30;;;8.00;98.20;;;;;;5027426;28;21006;-78
2021/03/04 12:08:19;;;;;;;1.60;1.20;;;7.90;98.20;;;;;;5039682;28;20462;-79
2021/03/04 12:10:46;;;;;;;1.53;1.20;;;7.90;98.20;;;;;;5042248;28;20491;-79
2021/03/04 12:13:13;;;;;;;1.57;1.20;;;7.80;98.20;;;;;;5029682;28;20485;-79
2021/03/04 12:15:41;;;;;;;1.60;1.30;;;7.80;98.20;;;;;;5059210;28;20490;-79
2021/03/04 12:18:08;;;;;;;1.57;1.20;;;7.80;98.20;;;;;;5049331;28;20569;-80
2021/03/04 12:20:34;;;;;;;1.53;1.20;;;7.70;98.20;;;;;;5046319;28;20492;-79
2021/03/04 12:23:01;;;;;;;1.57;1.20;;;7.70;98.20;;;;;;5038806;28;21472;-79
2021/03/04 12:25:27;;;;;;;1.50;1.20;;;7.70;98.20;;;;;;5030450;28;21293;-79
2021/03/04 12:27:54;;;;;;;1.60;1.40;;;7.60;98.20;;;;;;5036537;28;20524;-79
2021/03/04 12:30:22;;;;;;;1.60;1.30;;;7.60;98.20;;;;;;5044090;28;20486;-79
2021/03/04 12:32:50;;;;;;;1.60;1.23;;;7.60;98.20;;;;;;5030310;28;20478;-79
2021/03/04 12:35:17;;;;;;;1.57;1.20;;;7.60;98.20;;;;;;5028886;28;20629;-79
2021/03/04 12:37:44;;;;;;;1.53;1.20;;;7.60;98.20;;;;;;5042945;28;20477;-79
2021/03/04 12:40:11;;;;;;;1.60;1.20;;;7.60;98.20;;;;;;5037882;28;20889;-79
2021/03/04 12:42:37;;;;;;;1.60;1.20;;;7.60;98.20;;;;;;5027955;28;20536;-79
2021/03/04 12:45:05;;;;;;;1.60;1.40;;;7.50;98.20;;;;;;5032053;28;20539;-79
2021/03/04 12:47:32;;;;;;;1.53;1.20;;;7.50;98.20;;;;;;5034637;28;20508;-79
2021/03/04 12:50:01;;;;;;;1.73;1.47;;;7.40;98.20;;;;;;5037452;28;20489;-79
2021/03/04 12:52:28;;;;;;;1.60;1.30;;;7.30;98.20;;;;;;5020375;28;20500;-79
2021/03/04 12:54:54;;;;;;;1.60;1.20;;;7.30;98.20;;;;;;5033187;28;20482;-78
2021/03/04 12:57:21;;;;;;;1.60;1.30;;;7.20;98.20;;;;;;5031549;28;20484;-79
2021/03/04 12:59:47;;;;;;;1.57;1.20;;;7.20;98.20;;;;;;5030596;28;20520;-79
2021/03/04 13:02:15;;;;;;;1.60;1.30;;;7.20;98.20;;;;;;5033453;28;21379;-79
2021/03/04 13:04:43;;;;;;;1.60;1.37;;;7.20;98.20;;;;;;5036353;28;20501;-79